Time;durP1;ratioP1;P1;durP2;ratioP2;P2;SDS_P1;SDS_P2;PMS_P1;PMS_P2;Temp;Humidity;BMP_temperature;BMP_pressure;BME280_temperature;BME280_humidity;BME280_pressure;Samples;Min_cycle;Max_cycle;Signal;HPM_P1;HPM_P2
2022/12/28 00:01:04;;;;;;;5.73;4.40;;;4.50;99.90;;;;;;906880;153;27463;-83
2022/12/28 00:03:31;;;;;;;8.77;4.77;;;4.50;99.90;;;;;;904543;153;27450;-82
2022/12/28 00:05:57;;;;;;;4.53;3.87;;;4.50;99.90;;;;;;915272;151;27413;-80
2022/12/28 00:08:24;;;;;;;6.37;4.33;;;4.50;99.90;;;;;;917155;152;27550;-82
2022/12/28 00:10:52;;;;;;;6.93;4.23;;;4.50;99.90;;;;;;918273;151;27643;-82
2022/12/28 00:13:18;;;;;;;7.20;3.73;;;4.50;99.90;;;;;;918452;152;27388;-82
2022/12/28 00:15:45;;;;;;;7.73;4.40;;;4.60;99.90;;;;;;919479;151;27346;-82
2022/12/28 00:18:12;;;;;;;4.63;3.90;;;4.60;99.90;;;;;;916630;152;27495;-82
2022/12/28 00:20:38;;;;;;;5.50;3.83;;;4.60;99.90;;;;;;917852;153;27364;-82
2022/12/28 00:23:05;;;;;;;7.63;3.97;;;4.60;99.90;;;;;;918059;152;27383;-81
2022/12/28 00:25:31;;;;;;;4.60;3.97;;;4.60;99.90;;;;;;919211;151;27385;-82
2022/12/28 00:27:58;;;;;;;4.70;4.10;;;4.60;99.90;;;;;;916719;152;27510;-82
2022/12/28 00:30:24;;;;;;;5.27;4.27;;;4.60;99.90;;;;;;916392;152;27380;-82
2022/12/28 00:32:51;;;;;;;4.73;3.87;;;4.60;99.90;;;;;;919025;152;27350;-82
2022/12/28 00:35:18;;;;;;;6.13;4.10;;;4.60;99.90;;;;;;920850;151;27365;-82
2022/12/28 00:37:44;;;;;;;4.10;3.70;;;4.60;99.90;;;;;;916869;152;27497;-80
2022/12/28 00:40:11;;;;;;;10.00;4.40;;;4.60;99.90;;;;;;915757;152;27369;-82
2022/12/28 00:42:37;;;;;;;4.80;3.57;;;4.60;99.90;;;;;;917888;152;27306;-82
2022/12/28 00:45:04;;;;;;;6.13;4.40;;;4.60;99.90;;;;;;919413;152;27363;-83
2022/12/28 00:47:31;;;;;;;6.17;3.67;;;4.60;99.90;;;;;;918263;152;27337;-82
2022/12/28 00:49:57;;;;;;;4.33;3.77;;;4.60;99.90;;;;;;916653;152;27337;-82
2022/12/28 00:52:24;;;;;;;4.60;3.30;;;4.60;99.90;;;;;;919788;151;27384;-83
2022/12/28 00:54:50;;;;;;;4.13;3.40;;;4.70;99.90;;;;;;918515;152;28906;-82
2022/12/28 00:57:17;;;;;;;5.63;3.90;;;4.70;99.90;;;;;;919296;152;27325;-83
2022/12/28 00:59:43;;;;;;;5.83;3.50;;;4.70;99.90;;;;;;918667;152;27350;-82
2022/12/28 01:02:10;;;;;;;5.87;3.70;;;4.70;99.90;;;;;;916230;152;27458;-82
2022/12/28 01:04:37;;;;;;;4.30;3.67;;;4.70;99.90;;;;;;918218;151;27376;-83
2022/12/28 01:07:03;;;;;;;7.00;3.53;;;4.70;99.90;;;;;;920078;152;27476;-82
2022/12/28 01:09:30;;;;;;;5.83;3.30;;;4.70;99.90;;;;;;917481;152;27356;-82
2022/12/28 01:11:56;;;;;;;4.57;3.47;;;4.80;99.90;;;;;;917311;152;27401;-82
2022/12/28 01:14:23;;;;;;;4.83;3.90;;;4.80;99.90;;;;;;917894;152;27426;-82
2022/12/28 01:16:50;;;;;;;4.80;3.43;;;4.80;99.90;;;;;;918926;151;27385;-81
2022/12/28 01:19:16;;;;;;;4.67;3.27;;;4.80;99.90;;;;;;914617;152;27421;-83
2022/12/28 01:21:43;;;;;;;3.73;3.37;;;4.80;99.90;;;;;;911025;154;27426;-83
2022/12/28 01:24:09;;;;;;;3.90;3.37;;;4.90;99.90;;;;;;907808;154;27861;-83
2022/12/28 01:26:36;;;;;;;6.57;3.67;;;4.90;99.90;;;;;;906517;154;27319;-83
2022/12/28 01:29:02;;;;;;;6.47;3.93;;;4.90;99.90;;;;;;913158;153;27509;-82
2022/12/28 01:31:29;;;;;;;3.53;3.23;;;5.00;99.90;;;;;;914681;153;27485;-81
2022/12/28 01:33:56;;;;;;;4.43;3.30;;;5.00;99.90;;;;;;913049;153;27376;-82
2022/12/28 01:36:22;;;;;;;4.73;3.33;;;5.00;99.90;;;;;;919547;155;27901;-82
2022/12/28 01:38:49;;;;;;;5.87;3.90;;;5.00;99.90;;;;;;906990;156;27306;-82
2022/12/28 01:41:15;;;;;;;4.10;3.43;;;5.00;99.90;;;;;;907392;154;27331;-82
2022/12/28 01:43:42;;;;;;;5.13;2.93;;;5.00;99.90;;;;;;923073;151;27829;-80
2022/12/28 01:46:09;;;;;;;4.87;3.03;;;5.00;99.90;;;;;;913391;154;27471;-83
2022/12/28 01:48:35;;;;;;;5.47;3.17;;;5.00;99.90;;;;;;911910;155;27353;-82
2022/12/28 01:51:02;;;;;;;4.03;2.87;;;5.10;99.90;;;;;;912774;156;27384;-83
2022/12/28 01:53:28;;;;;;;5.17;3.70;;;5.00;99.90;;;;;;912289;153;27389;-83
2022/12/28 01:55:55;;;;;;;5.33;3.73;;;5.00;99.90;;;;;;914518;154;27458;-80
2022/12/28 01:58:24;;;;;;;5.10;3.70;;;5.10;99.90;;;;;;914669;156;27470;-82
2022/12/28 02:00:51;;;;;;;4.47;3.70;;;5.00;99.90;;;;;;910897;156;27369;-83
2022/12/28 02:03:17;;;;;;;6.77;3.83;;;5.10;99.90;;;;;;912980;154;27397;-82
2022/12/28 02:05:44;;;;;;;4.23;3.27;;;5.10;99.90;;;;;;911956;154;27354;-82
2022/12/28 02:08:16;;;;;;;5.13;3.37;;;5.10;99.90;;;;;;911645;153;27397;-82
2022/12/28 02:10:43;;;;;;;4.20;3.80;;;5.20;99.90;;;;;;914207;153;27349;-83
2022/12/28 02:13:09;;;;;;;3.80;3.40;;;5.20;99.90;;;;;;913847;156;27318;-82
2022/12/28 02:15:36;;;;;;;4.47;3.37;;;5.20;99.90;;;;;;912426;154;27452;-83
2022/12/28 02:18:02;;;;;;;4.23;3.47;;;5.20;99.90;;;;;;908143;156;27378;-81
2022/12/28 02:20:48;;;;;;;4.10;3.30;;;5.30;99.90;;;;;;921662;150;27498;-83
2022/12/28 02:23:29;;;;;;;4.63;3.13;;;5.40;99.90;;;;;;922667;150;27358;-83
2022/12/28 02:26:19;;;;;;;5.60;3.70;;;5.40;99.90;;;;;;922125;150;27337;-82
2022/12/28 02:29:01;;;;;;;4.47;3.20;;;5.50;99.90;;;;;;902392;152;27407;-82
2022/12/28 02:31:30;;;;;;;3.17;2.87;;;5.60;99.90;;;;;;919346;152;27425;-80
2022/12/28 02:34:05;;;;;;;4.93;3.13;;;5.70;99.90;;;;;;911824;151;27417;-81
2022/12/28 02:36:32;;;;;;;5.83;3.80;;;5.70;99.90;;;;;;917100;152;27518;-82
2022/12/28 02:39:19;;;;;;;4.90;3.50;;;5.80;99.90;;;;;;917334;152;27442;-82
2022/12/28 02:41:46;;;;;;;4.63;3.40;;;5.90;99.90;;;;;;918264;151;27399;-81
2022/12/28 02:50:04;;;;;;;4.50;3.63;;;6.00;99.90;;;;;;916454;151;27405;-83
2022/12/28 02:52:17;;;;;;;6.57;3.47;;;6.20;99.90;;;;;;919097;151;27475;-81
2022/12/28 02:58:14;;;;;;;4.40;3.77;;;6.30;99.90;;;;;;918814;152;27503;-82
2022/12/28 03:01:00;;;;;;;4.80;3.57;;;6.40;99.90;;;;;;919036;152;27400;-82
2022/12/28 03:03:47;;;;;;;5.30;3.77;;;6.40;99.90;;;;;;919459;152;27467;-82
2022/12/28 03:09:20;;;;;;;3.93;3.27;;;6.50;99.90;;;;;;918310;152;27500;-82
2022/12/28 03:11:59;;;;;;;3.87;3.40;;;6.60;99.90;;;;;;918477;152;27946;-83
2022/12/28 03:14:34;;;;;;;5.27;3.33;;;6.60;99.90;;;;;;915707;151;27349;-82
2022/12/28 03:31:05;;;;;;;4.60;3.03;;;6.90;99.90;;;;;;916054;156;27418;-83
2022/12/28 03:33:31;;;;;;;3.63;2.80;;;6.90;99.90;;;;;;912023;155;27391;-82
2022/12/28 03:35:58;;;;;;;3.77;3.13;;;6.90;99.90;;;;;;912862;153;27381;-81
2022/12/28 03:38:36;;;;;;;5.50;3.40;;;7.00;99.90;;;;;;911736;154;27486;-82
2022/12/28 03:41:09;;;;;;;3.40;2.80;;;7.00;99.90;;;;;;913560;153;27376;-82
2022/12/28 03:43:44;;;;;;;7.10;2.97;;;7.10;99.90;;;;;;920531;151;27916;-82
2022/12/28 03:46:16;;;;;;;4.00;2.53;;;7.10;99.90;;;;;;913756;153;27370;-81
2022/12/28 03:48:43;;;;;;;4.97;3.10;;;7.20;99.90;;;;;;911263;156;27363;-82
2022/12/28 03:51:09;;;;;;;3.57;2.67;;;7.20;99.90;;;;;;915078;153;27470;-81
2022/12/28 03:53:36;;;;;;;3.47;2.93;;;7.30;99.90;;;;;;906893;155;27321;-82
2022/12/28 03:56:11;;;;;;;3.43;3.13;;;7.30;99.90;;;;;;912411;156;27411;-81
2022/12/28 03:58:38;;;;;;;3.30;3.00;;;7.40;99.90;;;;;;913487;154;27523;-82
2022/12/28 04:01:04;;;;;;;2.97;2.70;;;7.40;99.90;;;;;;924282;154;27820;-82
2022/12/28 04:03:31;;;;;;;2.67;2.33;;;7.40;99.90;;;;;;913582;154;27296;-82
2022/12/28 04:05:57;;;;;;;3.20;2.73;;;7.50;99.90;;;;;;912474;153;27286;-82
2022/12/28 04:08:24;;;;;;;3.97;2.70;;;7.50;99.90;;;;;;912756;153;27418;-80
2022/12/28 04:10:51;;;;;;;3.10;2.80;;;7.50;99.90;;;;;;921927;152;27439;-82
2022/12/28 04:13:17;;;;;;;4.33;2.77;;;7.50;99.90;;;;;;912209;156;27384;-82
2022/12/28 04:15:44;;;;;;;4.50;2.57;;;7.60;99.90;;;;;;913807;153;27444;-82
2022/12/28 04:18:10;;;;;;;3.83;3.10;;;7.60;99.90;;;;;;911458;156;27385;-82
2022/12/28 04:20:37;;;;;;;4.03;2.80;;;7.60;99.90;;;;;;915091;154;27535;-82
2022/12/28 04:23:04;;;;;;;3.57;2.70;;;7.60;99.90;;;;;;907605;157;27511;-82
2022/12/28 04:25:30;;;;;;;3.57;3.07;;;7.60;99.90;;;;;;921175;151;28277;-82
2022/12/28 04:27:57;;;;;;;4.27;2.77;;;7.60;99.90;;;;;;913184;153;27374;-81
2022/12/28 04:30:23;;;;;;;6.77;3.83;;;7.50;99.90;;;;;;913446;156;27430;-82
2022/12/28 04:32:50;;;;;;;5.87;4.13;;;7.50;99.90;;;;;;911972;156;27367;-82
2022/12/28 04:35:16;;;;;;;4.33;3.80;;;7.50;99.90;;;;;;912297;153;27481;-81
2022/12/28 04:37:43;;;;;;;5.07;3.70;;;7.50;99.90;;;;;;916110;156;27502;-83
2022/12/28 04:40:10;;;;;;;4.27;3.27;;;7.50;99.90;;;;;;913773;154;27441;-83
2022/12/28 04:42:36;;;;;;;4.13;3.03;;;7.50;99.90;;;;;;913006;156;27476;-83
2022/12/28 04:45:03;;;;;;;3.63;2.70;;;7.50;99.90;;;;;;912749;153;27321;-82
2022/12/28 04:47:29;;;;;;;3.27;2.97;;;7.50;99.90;;;;;;913403;156;27387;-82
2022/12/28 04:49:56;;;;;;;6.27;3.17;;;7.50;99.90;;;;;;915271;154;27453;-82
2022/12/28 04:52:23;;;;;;;3.80;3.20;;;7.50;99.90;;;;;;913486;156;27361;-82
2022/12/28 04:54:49;;;;;;;3.93;2.83;;;7.50;99.90;;;;;;914355;153;27328;-82
2022/12/28 04:57:16;;;;;;;5.10;3.10;;;7.50;99.90;;;;;;911781;156;27349;-82
2022/12/28 04:59:42;;;;;;;2.80;2.60;;;7.50;99.90;;;;;;913505;154;27328;-82
2022/12/28 05:02:09;;;;;;;3.00;2.70;;;7.60;99.90;;;;;;915003;154;27506;-81
2022/12/28 05:04:36;;;;;;;3.37;3.00;;;7.60;99.90;;;;;;911810;154;27409;-82
2022/12/28 05:07:02;;;;;;;4.33;2.87;;;7.60;99.90;;;;;;913489;154;27406;-83
2022/12/28 05:09:29;;;;;;;5.03;3.07;;;7.60;99.90;;;;;;912737;153;27715;-82
2022/12/28 05:11:55;;;;;;;3.70;3.03;;;7.70;99.90;;;;;;913341;156;27298;-82
2022/12/28 05:14:22;;;;;;;4.17;3.10;;;7.70;99.90;;;;;;912829;153;27465;-81
2022/12/28 05:16:51;;;;;;;4.57;3.03;;;7.70;99.90;;;;;;912321;155;27411;-83
2022/12/28 05:19:17;;;;;;;4.53;3.30;;;7.80;99.90;;;;;;913673;154;27336;-83
2022/12/28 05:21:44;;;;;;;4.00;2.83;;;7.80;99.90;;;;;;917385;152;27856;-83
2022/12/28 05:24:11;;;;;;;4.73;3.10;;;7.80;99.90;;;;;;908100;153;27359;-82
2022/12/28 05:26:37;;;;;;;3.53;2.90;;;7.90;99.90;;;;;;923108;150;27374;-82
2022/12/28 05:29:04;;;;;;;3.40;2.60;;;7.90;99.90;;;;;;919218;152;27364;-82
2022/12/28 05:31:30;;;;;;;3.40;2.80;;;7.90;99.90;;;;;;918560;152;27425;-82
2022/12/28 05:33:57;;;;;;;3.87;2.97;;;7.90;99.90;;;;;;919568;152;27329;-82
2022/12/28 05:36:23;;;;;;;4.10;2.50;;;7.90;99.90;;;;;;920994;152;27329;-81
2022/12/28 05:38:50;;;;;;;3.57;2.47;;;8.00;99.90;;;;;;917172;152;27466;-80
2022/12/28 05:41:17;;;;;;;3.23;2.50;;;8.00;99.90;;;;;;919179;151;27392;-82
2022/12/28 05:43:43;;;;;;;2.97;2.67;;;8.00;99.90;;;;;;920569;150;27323;-81
2022/12/28 05:46:10;;;;;;;4.00;2.57;;;8.10;99.90;;;;;;918463;152;27383;-82
2022/12/28 05:48:36;;;;;;;3.43;2.43;;;8.10;99.90;;;;;;918470;151;27443;-82
2022/12/28 05:51:03;;;;;;;3.63;2.57;;;8.10;99.90;;;;;;919410;152;27418;-81
2022/12/28 05:53:30;;;;;;;2.80;2.20;;;8.20;99.90;;;;;;917963;152;27405;-82
2022/12/28 05:55:59;;;;;;;2.97;2.20;;;8.20;99.90;;;;;;905205;153;27433;-82
2022/12/28 05:58:26;;;;;;;2.27;1.97;;;8.20;99.90;;;;;;921497;151;27446;-82
2022/12/28 06:00:52;;;;;;;1.90;1.80;;;8.30;99.90;;;;;;916779;152;27312;-81
2022/12/28 06:03:19;;;;;;;2.83;2.40;;;8.30;99.90;;;;;;917379;152;27393;-80
2022/12/28 06:05:45;;;;;;;2.87;2.40;;;8.30;99.90;;;;;;916986;151;27506;-82
2022/12/28 06:08:12;;;;;;;2.40;2.20;;;8.40;99.90;;;;;;919431;152;27389;-82
2022/12/28 06:10:39;;;;;;;2.30;1.93;;;8.40;99.90;;;;;;917544;152;27329;-82
2022/12/28 06:13:05;;;;;;;2.50;2.07;;;8.50;99.90;;;;;;904365;153;27339;-81
2022/12/28 06:15:32;;;;;;;3.13;2.20;;;8.50;99.90;;;;;;920509;151;27355;-82
2022/12/28 06:17:58;;;;;;;3.23;2.10;;;8.60;99.90;;;;;;916780;152;27507;-83
2022/12/28 06:20:25;;;;;;;4.63;2.27;;;8.60;99.90;;;;;;906956;153;27467;-82
2022/12/28 06:22:51;;;;;;;4.20;2.03;;;8.60;99.90;;;;;;921916;151;27400;-82
2022/12/28 06:25:18;;;;;;;4.70;2.40;;;8.70;99.90;;;;;;913423;153;27359;-82
2022/12/28 06:27:45;;;;;;;2.53;2.10;;;8.70;99.90;;;;;;912338;153;27359;-82
2022/12/28 06:30:11;;;;;;;3.57;2.10;;;8.80;99.90;;;;;;911589;156;27396;-81
2022/12/28 06:32:38;;;;;;;2.27;2.07;;;8.80;99.90;;;;;;907339;154;27508;-82
2022/12/28 06:35:05;;;;;;;2.77;1.80;;;8.80;99.90;;;;;;906544;154;28458;-82
2022/12/28 06:37:31;;;;;;;3.23;2.10;;;8.90;99.90;;;;;;907645;156;27480;-82
2022/12/28 06:39:58;;;;;;;2.20;1.73;;;9.00;99.90;;;;;;907217;155;27423;-82
2022/12/28 06:42:24;;;;;;;2.17;1.80;;;9.00;99.90;;;;;;908396;154;27443;-82
2022/12/28 06:44:51;;;;;;;2.20;2.00;;;9.00;99.90;;;;;;907763;154;27533;-83
2022/12/28 06:47:18;;;;;;;2.97;1.77;;;9.00;99.90;;;;;;907189;154;27280;-82
2022/12/28 06:49:44;;;;;;;1.60;1.40;;;9.10;99.90;;;;;;921523;154;27781;-82
2022/12/28 06:52:11;;;;;;;2.67;1.97;;;9.20;99.90;;;;;;923537;151;27355;-82
2022/12/28 06:54:37;;;;;;;3.13;1.83;;;9.20;99.90;;;;;;912246;155;27343;-81
2022/12/28 06:57:04;;;;;;;3.03;1.90;;;9.30;99.90;;;;;;913544;154;27511;-82
2022/12/28 06:59:30;;;;;;;4.53;1.60;;;9.30;99.90;;;;;;914140;155;27388;-81
2022/12/28 07:01:57;;;;;;;4.10;2.10;;;9.30;99.90;;;;;;911649;156;27348;-82
2022/12/28 07:04:24;;;;;;;2.10;1.90;;;9.30;99.90;;;;;;913719;153;27427;-82
2022/12/28 07:06:50;;;;;;;2.87;1.90;;;9.40;99.90;;;;;;912882;153;27278;-82
2022/12/28 07:09:17;;;;;;;1.63;1.53;;;9.40;99.90;;;;;;911528;156;27465;-80
2022/12/28 07:11:43;;;;;;;2.17;1.87;;;9.40;99.90;;;;;;914397;156;27499;-82
2022/12/28 07:14:10;;;;;;;2.23;1.80;;;9.50;99.90;;;;;;915339;153;27963;-82
2022/12/28 07:16:37;;;;;;;2.43;1.73;;;9.50;99.90;;;;;;912933;153;27277;-80
2022/12/28 07:19:03;;;;;;;2.37;1.70;;;9.50;99.90;;;;;;911883;154;27465;-81
2022/12/28 07:21:32;;;;;;;1.90;1.70;;;9.50;99.90;;;;;;912794;156;27382;-81
2022/12/28 07:23:59;;;;;;;1.50;1.40;;;9.60;99.90;;;;;;914579;154;27467;-81
2022/12/28 07:26:26;;;;;;;2.20;1.70;;;9.60;99.90;;;;;;911140;154;27374;-82
2022/12/28 07:28:52;;;;;;;2.00;1.57;;;9.70;99.90;;;;;;913094;153;27792;-81
2022/12/28 07:31:22;;;;;;;3.00;1.50;;;9.70;99.90;;;;;;913962;154;27375;-82
2022/12/28 07:33:48;;;;;;;1.70;1.47;;;9.70;99.90;;;;;;913702;153;27431;-80
2022/12/28 07:36:15;;;;;;;2.33;1.93;;;9.70;99.90;;;;;;913892;153;27473;-82
2022/12/28 07:38:41;;;;;;;2.33;1.40;;;9.80;99.90;;;;;;912589;153;27406;-81
2022/12/28 07:41:11;;;;;;;1.80;1.47;;;9.80;99.80;;;;;;923610;151;27404;-81
2022/12/28 07:43:37;;;;;;;2.90;1.63;;;9.80;99.70;;;;;;906102;154;27387;-81
2022/12/28 07:46:04;;;;;;;2.63;1.60;;;9.80;99.60;;;;;;914530;153;27395;-81
2022/12/28 07:48:30;;;;;;;2.03;1.50;;;9.90;99.60;;;;;;907854;154;27769;-82
2022/12/28 07:50:57;;;;;;;1.63;1.50;;;9.90;99.50;;;;;;910948;156;27321;-81
2022/12/28 07:53:24;;;;;;;2.27;1.90;;;9.90;99.40;;;;;;913848;154;27278;-81
2022/12/28 07:55:56;;;;;;;1.70;1.40;;;9.90;99.40;;;;;;915518;153;27353;-80
2022/12/28 07:58:23;;;;;;;3.53;1.80;;;10.00;99.40;;;;;;913275;156;27395;-80
2022/12/28 08:00:49;;;;;;;2.00;1.63;;;10.00;99.40;;;;;;913253;153;27491;-81
2022/12/28 08:03:16;;;;;;;3.50;1.73;;;10.00;99.30;;;;;;912372;153;27382;-81
2022/12/28 08:05:42;;;;;;;1.53;1.40;;;10.10;99.30;;;;;;912652;153;27367;-81
2022/12/28 08:08:09;;;;;;;2.90;2.10;;;10.10;99.30;;;;;;912991;153;27384;-80
2022/12/28 08:10:36;;;;;;;1.50;1.40;;;10.20;99.20;;;;;;912650;153;27310;-80
2022/12/28 08:13:02;;;;;;;1.50;1.40;;;10.20;99.20;;;;;;913146;154;27421;-81
2022/12/28 08:15:29;;;;;;;1.80;1.60;;;10.20;99.00;;;;;;913490;156;27424;-81
2022/12/28 08:17:55;;;;;;;1.47;1.37;;;10.30;99.00;;;;;;910619;154;27366;-81
2022/12/28 08:20:22;;;;;;;1.50;1.40;;;10.30;98.90;;;;;;914071;153;27465;-81
2022/12/28 08:22:49;;;;;;;4.03;1.47;;;10.40;98.80;;;;;;915543;154;27380;-81
2022/12/28 08:25:15;;;;;;;3.67;1.67;;;10.40;98.70;;;;;;916316;152;27475;-81
2022/12/28 08:27:42;;;;;;;2.20;1.57;;;10.40;98.70;;;;;;912005;153;27410;-81
2022/12/28 08:30:09;;;;;;;1.40;1.30;;;10.40;98.50;;;;;;912940;153;27467;-81
2022/12/28 08:32:35;;;;;;;1.53;1.43;;;10.50;98.60;;;;;;913755;153;27377;-81
2022/12/28 08:35:02;;;;;;;2.43;1.50;;;10.50;98.50;;;;;;913026;153;27475;-81
2022/12/28 08:37:28;;;;;;;2.30;1.53;;;10.50;98.30;;;;;;912379;154;27318;-80
2022/12/28 08:39:55;;;;;;;2.13;1.67;;;10.60;98.30;;;;;;911257;153;27402;-81
2022/12/28 08:42:21;;;;;;;1.93;1.60;;;10.60;98.20;;;;;;914518;153;27406;-82
2022/12/28 08:44:48;;;;;;;1.90;1.37;;;10.60;98.10;;;;;;913774;153;27334;-81
2022/12/28 08:47:15;;;;;;;2.43;1.30;;;10.60;98.00;;;;;;913025;154;27362;-82
2022/12/28 08:49:43;;;;;;;2.03;1.30;;;10.70;98.10;;;;;;905909;154;27305;-81
2022/12/28 08:52:08;;;;;;;1.67;1.30;;;10.70;98.00;;;;;;921749;151;27434;-80
2022/12/28 08:54:34;;;;;;;2.67;1.57;;;10.70;97.90;;;;;;914288;153;28109;-80
2022/12/28 08:57:02;;;;;;;2.40;1.70;;;10.80;97.90;;;;;;907308;156;27346;-82
2022/12/28 08:59:29;;;;;;;2.23;1.67;;;10.80;97.80;;;;;;909284;154;27426;-83
2022/12/28 09:01:55;;;;;;;2.27;1.40;;;10.80;97.80;;;;;;913939;154;27381;-83
2022/12/28 09:04:22;;;;;;;3.80;1.67;;;10.90;97.80;;;;;;913093;154;27368;-82
2022/12/28 09:06:49;;;;;;;2.43;1.50;;;10.90;97.70;;;;;;908925;154;27378;-82
2022/12/28 09:09:16;;;;;;;3.17;1.70;;;11.00;97.60;;;;;;908405;154;27356;-81
2022/12/28 09:11:42;;;;;;;1.70;1.20;;;11.00;97.50;;;;;;912812;156;27490;-79
2022/12/28 09:14:08;;;;;;;1.40;1.30;;;11.10;97.50;;;;;;912550;153;27484;-82
2022/12/28 09:16:35;;;;;;;1.40;1.30;;;11.10;97.40;;;;;;912150;154;27355;-82
2022/12/28 09:19:02;;;;;;;2.50;1.60;;;11.10;97.60;;;;;;913312;153;27340;-82
2022/12/28 09:21:28;;;;;;;1.70;1.60;;;11.20;97.30;;;;;;912067;153;27365;-81
2022/12/28 09:23:55;;;;;;;2.93;1.90;;;11.20;97.10;;;;;;913382;154;27426;-82
2022/12/28 09:26:21;;;;;;;1.80;1.20;;;11.30;97.10;;;;;;912677;154;27931;-82
2022/12/28 09:28:51;;;;;;;1.97;1.30;;;11.30;96.90;;;;;;911996;154;27790;-83
2022/12/28 09:31:17;;;;;;;2.60;1.40;;;11.30;96.90;;;;;;911596;153;27455;-82
2022/12/28 09:34:02;;;;;;;2.77;2.23;;;11.40;96.70;;;;;;912927;156;27498;-81
2022/12/28 09:36:35;;;;;;;3.10;1.40;;;11.40;96.60;;;;;;913345;153;27411;-82
2022/12/28 09:39:01;;;;;;;2.47;1.30;;;11.50;96.40;;;;;;914512;154;27401;-83
2022/12/28 09:41:43;;;;;;;2.90;1.37;;;11.50;96.40;;;;;;912024;156;27359;-82
2022/12/28 09:44:15;;;;;;;1.93;1.50;;;11.50;96.30;;;;;;911399;156;27354;-83
2022/12/28 09:46:39;;;;;;;3.93;1.60;;;11.50;96.30;;;;;;905663;156;27422;-83
2022/12/28 09:49:05;;;;;;;4.80;2.23;;;11.60;96.30;;;;;;921180;154;27327;-81
2022/12/28 09:51:32;;;;;;;3.90;1.40;;;11.60;96.10;;;;;;912785;156;27409;-83
2022/12/28 09:53:59;;;;;;;1.47;1.37;;;11.60;96.20;;;;;;912857;156;27517;-82
2022/12/28 09:56:28;;;;;;;1.60;1.43;;;11.70;96.30;;;;;;912949;156;27383;-82
2022/12/28 09:58:55;;;;;;;1.50;1.40;;;11.70;96.20;;;;;;911995;156;27293;-82
2022/12/28 10:01:21;;;;;;;1.87;1.40;;;11.80;96.40;;;;;;911838;155;27455;-81
2022/12/28 10:03:48;;;;;;;2.73;1.40;;;11.80;96.30;;;;;;913117;154;27418;-83
2022/12/28 10:06:15;;;;;;;2.30;1.30;;;11.90;96.10;;;;;;912556;154;27306;-84
2022/12/28 10:08:41;;;;;;;1.70;1.43;;;12.00;96.00;;;;;;912169;156;27961;-84
2022/12/28 10:11:08;;;;;;;1.30;1.20;;;12.00;95.80;;;;;;911868;156;27456;-84
2022/12/28 10:13:37;;;;;;;3.43;1.30;;;12.10;95.50;;;;;;913205;156;27394;-81
2022/12/28 10:16:06;;;;;;;1.33;1.10;;;12.10;95.40;;;;;;911844;156;27505;-82
2022/12/28 10:18:36;;;;;;;4.50;3.00;;;12.20;95.30;;;;;;913121;156;27362;-82
2022/12/28 10:20:59;;;;;;;2.10;1.80;;;12.20;95.10;;;;;;911665;156;27334;-82
2022/12/28 10:23:26;;;;;;;1.40;1.20;;;12.20;94.90;;;;;;904123;156;27433;-82
2022/12/28 10:25:53;;;;;;;2.00;1.40;;;12.30;94.90;;;;;;921299;151;27483;-80
2022/12/28 10:28:19;;;;;;;1.90;1.40;;;12.30;94.90;;;;;;911628;156;27480;-83
2022/12/28 10:30:46;;;;;;;2.13;1.73;;;12.30;94.80;;;;;;913091;156;27329;-82
2022/12/28 10:33:18;;;;;;;3.40;2.10;;;12.30;94.60;;;;;;910849;156;27358;-82
2022/12/28 10:35:51;;;;;;;6.90;3.87;;;12.40;94.60;;;;;;914614;156;27317;-82
2022/12/28 10:38:29;;;;;;;4.23;2.00;;;12.40;94.70;;;;;;911166;154;27377;-80
2022/12/28 10:40:59;;;;;;;3.43;2.07;;;12.40;94.50;;;;;;911171;156;27370;-84
2022/12/28 10:43:25;;;;;;;3.37;2.00;;;12.50;94.30;;;;;;913100;156;27450;-83
2022/12/28 10:45:51;;;;;;;1.83;1.70;;;12.50;94.20;;;;;;913474;154;27307;-82
2022/12/28 10:48:18;;;;;;;3.83;2.00;;;12.60;94.10;;;;;;913249;156;27476;-80
2022/12/28 10:50:54;;;;;;;3.60;2.13;;;12.60;94.20;;;;;;911989;156;27375;-83
2022/12/28 10:53:26;;;;;;;3.02;2.15;;;12.70;94.20;;;;;;914210;156;27408;-83
2022/12/28 10:56:11;;;;;;;1.73;1.43;;;12.70;94.00;;;;;;913007;154;27349;-85
2022/12/28 10:58:38;;;;;;;3.23;1.80;;;12.80;93.90;;;;;;914589;156;27347;-83
2022/12/28 11:01:13;;;;;;;8.40;3.60;;;12.80;93.60;;;;;;912847;154;27349;-80
2022/12/28 11:03:45;;;;;;;3.63;2.33;;;12.90;93.60;;;;;;913477;156;27424;-83
2022/12/28 11:06:14;;;;;;;8.63;4.15;;;12.90;93.30;;;;;;909813;153;27400;-84
2022/12/28 11:08:41;;;;;;;6.37;2.60;;;13.00;93.00;;;;;;912124;154;27406;-82
2022/12/28 11:11:08;;;;;;;6.67;2.83;;;13.00;92.60;;;;;;911234;156;27334;-82
2022/12/28 11:13:34;;;;;;;2.30;2.00;;;13.00;92.60;;;;;;911563;156;27474;-83
2022/12/28 11:16:01;;;;;;;8.60;2.60;;;13.10;92.20;;;;;;912993;153;27501;-83
2022/12/28 11:18:27;;;;;;;8.55;4.10;;;13.10;91.90;;;;;;905603;157;27438;-83
2022/12/28 11:20:54;;;;;;;10.45;4.00;;;13.10;91.90;;;;;;923345;151;27357;-83
2022/12/28 11:23:23;;;;;;;7.43;3.13;;;13.20;91.90;;;;;;912390;156;27335;-83
2022/12/28 11:25:50;;;;;;;6.00;2.80;;;13.20;91.80;;;;;;913584;154;27491;-82
2022/12/28 11:28:19;;;;;;;7.67;2.90;;;13.20;91.50;;;;;;914693;154;28064;-83
2022/12/28 11:30:45;;;;;;;7.55;2.45;;;13.30;91.30;;;;;;912855;153;27351;-83
2022/12/28 11:33:27;;;;;;;9.77;2.80;;;13.30;91.40;;;;;;912997;153;27450;-82
2022/12/28 11:35:54;;;;;;;5.42;2.67;;;13.30;91.40;;;;;;913209;153;27515;-83
2022/12/28 11:38:42;;;;;;;4.77;1.77;;;13.30;91.30;;;;;;912790;156;27387;-83
2022/12/28 11:41:09;;;;;;;9.95;4.58;;;13.30;91.10;;;;;;911963;156;27483;-82
2022/12/28 11:43:39;;;;;;;9.13;2.92;;;13.30;91.00;;;;;;913078;156;27482;-83
2022/12/28 11:46:05;;;;;;;9.40;3.77;;;13.30;90.90;;;;;;914233;153;27317;-83
2022/12/28 11:48:41;;;;;;;8.03;3.55;;;13.30;90.80;;;;;;908850;156;27317;-82
2022/12/28 11:51:13;;;;;;;16.53;4.77;;;13.30;90.50;;;;;;922973;154;27338;-82
2022/12/28 11:53:45;;;;;;;11.45;4.10;;;13.30;90.60;;;;;;912086;156;27406;-80
2022/12/28 11:56:12;;;;;;;4.62;2.60;;;13.40;90.40;;;;;;912652;154;27458;-82
2022/12/28 11:58:42;;;;;;;3.15;2.08;;;13.40;90.40;;;;;;911158;156;27383;-84
2022/12/28 12:01:08;;;;;;;18.35;4.87;;;13.40;90.40;;;;;;912573;153;27437;-83
2022/12/28 12:03:56;;;;;;;5.40;2.55;;;13.50;90.70;;;;;;911268;156;27461;-82
2022/12/28 12:06:44;;;;;;;13.40;4.40;;;13.50;90.40;;;;;;912718;153;27376;-80
2022/12/28 12:09:27;;;;;;;17.42;5.45;;;13.60;90.20;;;;;;922692;151;27566;-82
2022/12/28 12:12:00;;;;;;;4.35;2.33;;;13.60;90.70;;;;;;917420;153;27305;-83
2022/12/28 12:14:27;;;;;;;9.13;3.13;;;13.70;90.50;;;;;;919378;152;27359;-83
2022/12/28 12:17:01;;;;;;;9.43;3.15;;;13.70;89.70;;;;;;906972;154;27406;-80
2022/12/28 12:19:26;;;;;;;6.78;3.40;;;13.70;87.70;;;;;;912341;156;27535;-83
2022/12/28 12:22:01;;;;;;;8.33;3.80;;;13.80;87.80;;;;;;912660;156;27503;-83
2022/12/28 12:24:53;;;;;;;9.98;3.65;;;13.80;88.00;;;;;;912677;153;27438;-82
2022/12/28 12:27:18;;;;;;;4.55;2.65;;;13.80;87.30;;;;;;914603;154;27450;-83
2022/12/28 12:29:51;;;;;;;9.28;3.67;;;13.80;87.00;;;;;;918879;155;27440;-82
2022/12/28 12:32:20;;;;;;;5.37;2.62;;;13.80;86.90;;;;;;916481;155;27395;-84
2022/12/28 12:34:56;;;;;;;3.75;2.15;;;13.70;86.80;;;;;;917702;152;27331;-79
2022/12/28 12:37:28;;;;;;;2.83;2.05;;;13.70;86.00;;;;;;918251;155;27327;-82
2022/12/28 12:40:13;;;;;;;3.98;2.00;;;13.70;87.20;;;;;;919939;152;27395;-83
2022/12/28 12:42:49;;;;;;;1.87;1.70;;;13.70;86.50;;;;;;900552;155;27537;-83
2022/12/28 12:45:21;;;;;;;2.52;1.70;;;13.80;87.00;;;;;;918774;153;27395;-83
2022/12/28 12:48:03;;;;;;;2.03;1.20;;;13.80;86.90;;;;;;918219;155;27409;-82
2022/12/28 12:51:03;;;;;;;1.42;1.25;;;13.80;86.70;;;;;;918344;155;27416;-82
2022/12/28 12:53:48;;;;;;;2.20;1.70;;;13.80;87.20;;;;;;928079;153;27318;-83
2022/12/28 12:56:36;;;;;;;2.43;2.03;;;13.80;86.00;;;;;;920567;152;27347;-81
2022/12/28 12:59:08;;;;;;;2.67;1.67;;;13.80;86.40;;;;;;918574;155;27415;-83
2022/12/28 13:01:50;;;;;;;1.27;1.17;;;13.80;86.40;;;;;;918122;152;27473;-79
2022/12/28 13:04:25;;;;;;;1.80;0.90;;;13.80;86.10;;;;;;914114;152;27395;-82
2022/12/28 13:06:52;;;;;;;3.02;1.05;;;13.80;85.50;;;;;;918498;155;27325;-83
2022/12/28 13:09:18;;;;;;;4.28;1.75;;;13.80;85.60;;;;;;917044;152;27376;-82
2022/12/28 13:11:45;;;;;;;1.75;1.22;;;13.70;84.90;;;;;;919991;152;27341;-81
2022/12/28 13:14:20;;;;;;;1.90;1.55;;;13.70;84.90;;;;;;916753;152;27502;-79
2022/12/28 13:16:50;;;;;;;2.60;1.32;;;13.70;85.00;;;;;;927678;153;27427;-83
2022/12/28 13:19:16;;;;;;;3.92;2.12;;;13.70;85.10;;;;;;919876;155;27408;-83
2022/12/28 13:21:43;;;;;;;3.45;1.72;;;13.70;85.00;;;;;;916962;155;27369;-82
2022/12/28 13:24:21;;;;;;;1.42;1.27;;;13.70;84.90;;;;;;917094;155;27372;-80
2022/12/28 13:26:48;;;;;;;2.70;1.40;;;13.60;84.30;;;;;;919120;153;27514;-83